Flight Track Log - Related Links

Times and Time Zones

All times are in EDT time to prevent confusion due to time zone crossing. See the SWA268 flight status page for this flight to view local times or setup timezone preferences in your user account.

Time Position Orientation Groundspeed Altitude Reporting Facility
EDT Latitude Longitude Course Direction KTS MPH feet Rate Location/Type
Thu 02:00:37 PM 36.0753 -115.1739 271° West 167 192 3,300  Level Los Angeles Center
Thu 02:01:20 PM 36.0758 -115.2161 271° West 182 209 4,600 1,811 Climbing Los Angeles Center
Thu 02:02:23 PM 36.0356 -115.2708 228° Southwest 222 255 6,500 2,784 Climbing Los Angeles Center
Thu 02:03:25 PM 35.9661 -115.2994 198° South 248 285 10,400 2,867 Climbing Los Angeles Center
Thu 02:04:16 PM 35.9228 -115.2372 131° Southeast 336 387 11,900 2,806 Climbing Los Angeles Center
Thu 02:05:29 PM 35.9233 -115.0858 90° East 350 403 16,200 3,244 Climbing Los Angeles Center
Thu 02:06:31 PM 35.9242 -114.9561 90° East 368 423 19,200 2,640 Climbing Los Angeles Center
Thu 02:07:34 PM 35.9233 -114.8164 90° East 396 456 21,700 2,323 Climbing Los Angeles Center
Thu 02:08:35 PM 35.9225 -114.6708 90° East 418 481 24,000 2,323 Climbing Los Angeles Center
Thu 02:09:38 PM 35.8986 -114.4914 99° East 439 505 26,500 2,208 Climbing Los Angeles Center
Thu 02:10:40 PM 35.8753 -114.3383 101° East 450 518 28,600 1,887 Climbing Los Angeles Center
Thu 02:11:42 PM 35.8608 -114.1803 96° East 458 527 30,400 1,645 Climbing Los Angeles Center
Thu 02:12:44 PM 35.8553 -114.0167 92° East 469 540 32,000 1,680 Climbing Los Angeles Center
Thu 02:13:47 PM 35.8481 -113.8528 93° East 477 549 33,900 1,694 Climbing Los Angeles Center
Thu 02:14:48 PM 35.8369 -113.6569 94° East 477 549 35,500 1,366 Climbing Los Angeles Center
Thu 02:15:50 PM 35.8286 -113.5175 94° East 482 555 36,700 720 Climbing Los Angeles Center
Thu 02:16:53 PM 35.8178 -113.3192 94° East 485 558 37,000 143 Climbing Los Angeles Center
Thu 02:17:56 PM 35.8081 -113.1539 94° East 483 556 37,000 484 Level Los Angeles Center
Thu 02:18:57 PM 35.7981 -112.9894 94° East 481 554 38,000 976 Climbing Los Angeles Center
Thu 02:19:59 PM 35.7881 -112.8272 94° East 475 547 39,000 484 Climbing Los Angeles Center
Thu 02:21:01 PM 35.7786 -112.6636 94° East 477 549 39,000  Level Los Angeles Center
Thu 02:22:03 PM 35.7672 -112.5008 95° East 477 549 39,000  Level Los Angeles Center
Thu 02:23:05 PM 35.7550 -112.3061 94° East 476 548 39,000  Level Los Angeles Center
Thu 02:24:07 PM 35.7442 -112.1439 95° East 478 550 39,000  Level Los Angeles Center
Thu 02:25:10 PM 35.7331 -111.9828 95° East 475 547 39,000  Level Los Angeles Center
Thu 02:26:12 PM 35.7203 -111.8197 95° East 480 552 39,000  Level Los Angeles Center
Thu 02:27:14 PM 35.7094 -111.6572 95° East 479 551 39,000  Level Los Angeles Center
Thu 02:28:00 PM 35.6989 -111.5269 96° East 479 551 39,000  Level Albuquerque Center
Thu 02:29:02 PM 35.6858 -111.3386 95° East 478 550 39,000  Level Albuquerque Center
Thu 02:30:04 PM 35.6733 -111.1811 96° East 483 556 39,000  Level Albuquerque Center
Thu 02:31:06 PM 35.6581 -110.9975 96° East 484 557 39,000 -97 Level Albuquerque Center
Thu 02:32:08 PM 35.6469 -110.8392 95° East 486 559 38,800 -629 Descending Albuquerque Center
Thu 02:33:10 PM 35.6308 -110.6539 96° East 488 562 37,700 -871 Descending Albuquerque Center
Thu 02:34:12 PM 35.6183 -110.4972 96° East 485 558 37,000 -339 Descending Albuquerque Center
Thu 02:35:14 PM 35.6056 -110.3417 96° East 481 554 37,000  Level Albuquerque Center
Thu 02:36:16 PM 35.5906 -110.1597 96° East 481 554 37,000  Level Albuquerque Center
Thu 02:37:18 PM 35.5769 -110.0039 96° East 480 552 37,000  Level Albuquerque Center
Thu 02:38:20 PM 35.5625 -109.8233 96° East 479 551 37,000  Level Albuquerque Center
Thu 02:39:22 PM 35.5497 -109.6669 96° East 480 552 37,000  Level Albuquerque Center
Thu 02:40:23 PM 35.5328 -109.4861 97° East 480 552 37,000 -49 Level Albuquerque Center
Thu 02:41:25 PM 35.5183 -109.3281 96° East 485 558 36,900 -1,065 Descending Albuquerque Center
Thu 02:42:27 PM 35.5022 -109.1458 96° East 484 557 34,800 -1,500 Descending Albuquerque Center
Thu 02:43:29 PM 35.4872 -108.9947 97° East 475 547 33,800 -871 Descending Albuquerque Center
Thu 02:44:31 PM 35.4761 -108.8231 94° East 460 529 33,000 -387 Descending Albuquerque Center
Thu 02:45:33 PM 35.4811 -108.6775 88° East 451 519 33,000  Level Albuquerque Center
Thu 02:46:35 PM 35.4858 -108.5036 88° East 456 525 33,000 -1,065 Level Albuquerque Center
Thu 02:47:37 PM 35.4883 -108.3556 89° East 456 525 30,800 -2,274 Descending Albuquerque Center
Thu 02:48:39 PM 35.4781 -108.1861 94° East 450 518 28,300 -2,177 Descending Albuquerque Center
Thu 02:49:41 PM 35.4681 -108.0450 95° East 440 506 26,300 -2,129 Descending Albuquerque Center
Thu 02:50:43 PM 35.4581 -107.8856 94° East 426 490 23,900 -2,081 Descending Albuquerque Center
Thu 02:51:45 PM 35.4489 -107.7539 95° East 414 476 22,000 -1,984 Descending Albuquerque Center
Thu 02:52:47 PM 35.4383 -107.6047 95° East 398 458 19,800 -1,984 Descending Albuquerque Center
Thu 02:53:49 PM 35.4311 -107.4822 94° East 384 442 17,900 -1,895 Descending Albuquerque Center
Thu 02:54:41 PM 35.4192 -107.3669 97° East 370 426 16,200 -1,561 Descending Albuquerque Center
Thu 02:55:52 PM 35.3664 -107.2533 120° Southeast 363 418 14,700 -1,308 Descending Albuquerque Center
Thu 02:56:54 PM 35.3178 -107.1583 122° Southeast 336 387 13,300 -1,585 Descending Albuquerque Center
Thu 02:57:38 PM 35.2689 -107.0825 128° Southeast 315 362 11,900 -1,452 Descending Albuquerque Center
Thu 02:57:56 PM 35.2625 -107.0775 147° Southeast 319 367 11,800 -1,200 Descending Albuquerque Center
Thu 02:58:38 PM 35.1939 -107.0286 150° Southeast 306 352 10,700 -1,452 Descending Albuquerque Center
Thu 02:58:58 PM 35.1747 -107.0153 150° Southeast 307 353 10,300 -1,377 Descending Albuquerque Center
Thu 02:59:39 PM 35.1233 -106.9792 150° Southeast 294 338 9,300 -1,355 Descending Albuquerque Center
Thu 03:00:00 PM 35.1050 -106.9656 149° Southeast 300 345 8,900 -885 Descending Albuquerque Center
Thu 03:00:40 PM 35.0658 -106.9158 134° Southeast 278 320 8,400 -677 Descending Albuquerque Center
Thu 03:01:02 PM 35.0547 -106.8989 129° Southeast 286 329 8,200 -393 Descending Albuquerque Center
Thu 03:01:41 PM 35.0458 -106.8381 100° East 239 275 8,000 -194 Descending Albuquerque Center
Thu 03:02:04 PM 35.0447 -106.8064 92° East 256 295 8,000 -492 Level Albuquerque Center
Thu 03:02:42 PM 35.0456 -106.7628 89° East 210 242 7,500 -774 Descending Albuquerque Center
Thu 03:03:06 PM 35.0447 -106.7347 92° East 232 267 7,200 -900 Descending Albuquerque Center
Thu 03:03:42 PM 35.0447 -106.6958 90° East 175 201 6,600 -885 Descending Albuquerque Center
Thu 03:04:07 PM 35.0444 -106.6783 91° East 197 227 6,300 -787 Descending Albuquerque Center
Thu 03:04:43 PM 35.0442 -106.6439 91° East 149 171 5,800 -774 Descending Albuquerque Center
Thu 03:05:09 PM 35.0444 -106.6256 89° East 171 197 5,500 -692 Descending Albuquerque Center
Thu 03:07:00 PM 35.0402 -106.6092 90° East  Level Estimated

Login

Don't have an account? Register now (free) for customized features, flight alerts, and more!